Ramsay, Montana
Current Conditions -  °F | °C
As of 6:53 AM on Monday 24 Nov 2014 (Local Time) from KBTM Reporting Station
Light Snow Light Snow  
Wind Chill: 18°   Ceiling: 7000
Heat Index: 27°   Visibility: 10mi
Dew Point: 17°   Wind: 9mph
Humidity: 66%   Direction: 290°WNW
Pressure: 30.12"   Gusts: NA
Location:  46°N, 112.68°W
Report Text: KBTM 241353Z AUTO 29008KT 10SM -SN FEW050 OVC070 M03/M08 A3012 RMK AO2 SNB52 SLP236 P0000 T10281083
Loading
Personal Weather Stations






























Interactive Weather Map New forecast layout! Learn more

10-Day Weather Forecast

Advertisements
Track Severe Weather on mobile